sensor_id;sensor_type;location;lat;lon;timestamp;P1;durP1;ratioP1;P2;durP2;ratioP2
30149;SDS011;16962;48.646;9.026;2023-12-20T00:00:58;2.10;;;1.90;;
30149;SDS011;16962;48.646;9.026;2023-12-20T00:03:45;1.77;;;1.67;;
30149;SDS011;16962;48.646;9.026;2023-12-20T00:06:32;1.88;;;1.77;;
30149;SDS011;16962;48.646;9.026;2023-12-20T00:09:25;3.20;;;2.15;;
30149;SDS011;16962;48.646;9.026;2023-12-20T00:12:12;2.20;;;1.90;;
30149;SDS011;16962;48.646;9.026;2023-12-20T00:14:59;1.65;;;1.55;;
30149;SDS011;16962;48.646;9.026;2023-12-20T00:17:47;1.85;;;1.60;;
30149;SDS011;16962;48.646;9.026;2023-12-20T00:20:35;1.55;;;1.45;;
30149;SDS011;16962;48.646;9.026;2023-12-20T00:23:23;1.58;;;1.48;;
30149;SDS011;16962;48.646;9.026;2023-12-20T00:26:10;2.03;;;1.58;;
30149;SDS011;16962;48.646;9.026;2023-12-20T00:28:58;1.73;;;1.63;;
30149;SDS011;16962;48.646;9.026;2023-12-20T00:31:45;1.40;;;1.30;;
30149;SDS011;16962;48.646;9.026;2023-12-20T00:34:33;1.77;;;1.67;;
30149;SDS011;16962;48.646;9.026;2023-12-20T00:37:25;1.80;;;1.60;;
30149;SDS011;16962;48.646;9.026;2023-12-20T00:40:14;1.67;;;1.52;;
30149;SDS011;16962;48.646;9.026;2023-12-20T00:43:02;2.95;;;1.50;;
30149;SDS011;16962;48.646;9.026;2023-12-20T00:45:49;2.70;;;1.50;;
30149;SDS011;16962;48.646;9.026;2023-12-20T00:48:39;3.05;;;1.80;;
30149;SDS011;16962;48.646;9.026;2023-12-20T00:51:28;1.55;;;1.45;;
30149;SDS011;16962;48.646;9.026;2023-12-20T00:54:18;2.00;;;1.67;;
30149;SDS011;16962;48.646;9.026;2023-12-20T00:57:05;2.20;;;1.80;;
30149;SDS011;16962;48.646;9.026;2023-12-20T00:59:57;1.77;;;1.67;;
30149;SDS011;16962;48.646;9.026;2023-12-20T01:02:44;2.30;;;1.40;;
30149;SDS011;16962;48.646;9.026;2023-12-20T01:05:33;1.90;;;1.80;;
30149;SDS011;16962;48.646;9.026;2023-12-20T01:08:20;2.40;;;2.10;;
30149;SDS011;16962;48.646;9.026;2023-12-20T01:11:07;5.10;;;2.30;;
30149;SDS011;16962;48.646;9.026;2023-12-20T01:13:55;2.33;;;1.65;;
30149;SDS011;16962;48.646;9.026;2023-12-20T01:16:42;2.90;;;1.98;;
30149;SDS011;16962;48.646;9.026;2023-12-20T01:19:29;3.83;;;2.17;;
30149;SDS011;16962;48.646;9.026;2023-12-20T01:22:17;6.25;;;2.20;;
30149;SDS011;16962;48.646;9.026;2023-12-20T01:25:06;3.10;;;2.30;;
30149;SDS011;16962;48.646;9.026;2023-12-20T01:27:54;2.75;;;2.28;;
30149;SDS011;16962;48.646;9.026;2023-12-20T01:30:41;2.67;;;2.17;;
30149;SDS011;16962;48.646;9.026;2023-12-20T01:33:29;2.40;;;2.20;;
30149;SDS011;16962;48.646;9.026;2023-12-20T01:36:16;4.45;;;2.63;;
30149;SDS011;16962;48.646;9.026;2023-12-20T01:39:03;3.33;;;2.35;;
30149;SDS011;16962;48.646;9.026;2023-12-20T01:41:58;3.42;;;2.58;;
30149;SDS011;16962;48.646;9.026;2023-12-20T01:44:45;2.30;;;2.10;;
30149;SDS011;16962;48.646;9.026;2023-12-20T01:47:34;2.30;;;2.10;;
30149;SDS011;16962;48.646;9.026;2023-12-20T01:50:27;2.47;;;2.28;;
30149;SDS011;16962;48.646;9.026;2023-12-20T01:53:15;2.95;;;2.30;;
30149;SDS011;16962;48.646;9.026;2023-12-20T01:56:03;2.00;;;1.90;;
30149;SDS011;16962;48.646;9.026;2023-12-20T01:58:56;3.15;;;2.15;;
30149;SDS011;16962;48.646;9.026;2023-12-20T02:01:46;2.97;;;2.25;;
30149;SDS011;16962;48.646;9.026;2023-12-20T02:04:33;2.22;;;1.88;;
30149;SDS011;16962;48.646;9.026;2023-12-20T02:07:23;4.78;;;2.20;;
30149;SDS011;16962;48.646;9.026;2023-12-20T02:10:11;1.50;;;1.40;;
30149;SDS011;16962;48.646;9.026;2023-12-20T02:12:59;1.63;;;1.52;;
30149;SDS011;16962;48.646;9.026;2023-12-20T02:15:48;2.90;;;2.00;;
30149;SDS011;16962;48.646;9.026;2023-12-20T02:18:36;1.60;;;1.50;;
30149;SDS011;16962;48.646;9.026;2023-12-20T02:21:32;2.28;;;1.80;;
30149;SDS011;16962;48.646;9.026;2023-12-20T02:24:21;1.83;;;1.73;;
30149;SDS011;16962;48.646;9.026;2023-12-20T02:27:08;2.35;;;2.08;;
30149;SDS011;16962;48.646;9.026;2023-12-20T02:29:55;2.03;;;1.83;;
30149;SDS011;16962;48.646;9.026;2023-12-20T02:32:43;1.70;;;1.60;;
30149;SDS011;16962;48.646;9.026;2023-12-20T02:35:33;1.70;;;1.60;;
30149;SDS011;16962;48.646;9.026;2023-12-20T02:38:20;1.77;;;1.67;;
30149;SDS011;16962;48.646;9.026;2023-12-20T02:41:07;2.00;;;1.33;;
30149;SDS011;16962;48.646;9.026;2023-12-20T02:43:54;2.78;;;1.70;;
30149;SDS011;16962;48.646;9.026;2023-12-20T02:46:43;1.85;;;1.75;;
30149;SDS011;16962;48.646;9.026;2023-12-20T02:49:31;1.60;;;1.50;;
30149;SDS011;16962;48.646;9.026;2023-12-20T02:52:20;1.08;;;1.08;;
30149;SDS011;16962;48.646;9.026;2023-12-20T02:55:09;1.40;;;1.30;;
30149;SDS011;16962;48.646;9.026;2023-12-20T02:57:56;1.13;;;1.02;;
30149;SDS011;16962;48.646;9.026;2023-12-20T03:00:45;1.17;;;1.10;;
30149;SDS011;16962;48.646;9.026;2023-12-20T03:03:35;0.80;;;0.80;;
30149;SDS011;16962;48.646;9.026;2023-12-20T03:06:23;1.00;;;1.00;;
30149;SDS011;16962;48.646;9.026;2023-12-20T03:09:11;0.90;;;0.90;;
30149;SDS011;16962;48.646;9.026;2023-12-20T03:12:01;0.80;;;0.80;;
30149;SDS011;16962;48.646;9.026;2023-12-20T03:14:50;0.70;;;0.70;;
30149;SDS011;16962;48.646;9.026;2023-12-20T03:17:37;0.75;;;0.75;;
30149;SDS011;16962;48.646;9.026;2023-12-20T03:20:25;0.60;;;0.60;;
30149;SDS011;16962;48.646;9.026;2023-12-20T03:23:15;0.77;;;0.75;;
30149;SDS011;16962;48.646;9.026;2023-12-20T03:26:02;1.92;;;1.00;;
30149;SDS011;16962;48.646;9.026;2023-12-20T03:28:53;0.70;;;0.70;;
30149;SDS011;16962;48.646;9.026;2023-12-20T03:31:40;2.70;;;0.70;;
30149;SDS011;16962;48.646;9.026;2023-12-20T03:34:30;0.70;;;0.70;;
30149;SDS011;16962;48.646;9.026;2023-12-20T03:37:18;0.70;;;0.70;;
30149;SDS011;16962;48.646;9.026;2023-12-20T03:40:05;0.70;;;0.70;;
30149;SDS011;16962;48.646;9.026;2023-12-20T03:42:55;0.63;;;0.63;;
30149;SDS011;16962;48.646;9.026;2023-12-20T03:45:43;0.70;;;0.70;;
30149;SDS011;16962;48.646;9.026;2023-12-20T03:48:30;1.70;;;0.73;;
30149;SDS011;16962;48.646;9.026;2023-12-20T03:51:18;0.77;;;0.70;;
30149;SDS011;16962;48.646;9.026;2023-12-20T03:54:05;0.60;;;0.60;;
30149;SDS011;16962;48.646;9.026;2023-12-20T03:56:52;0.75;;;0.60;;
30149;SDS011;16962;48.646;9.026;2023-12-20T03:59:39;1.13;;;1.10;;
30149;SDS011;16962;48.646;9.026;2023-12-20T04:02:27;1.27;;;0.75;;
30149;SDS011;16962;48.646;9.026;2023-12-20T04:05:16;0.90;;;0.55;;
30149;SDS011;16962;48.646;9.026;2023-12-20T04:08:09;1.00;;;0.52;;
30149;SDS011;16962;48.646;9.026;2023-12-20T04:10:59;0.70;;;0.70;;
30149;SDS011;16962;48.646;9.026;2023-12-20T04:13:46;0.60;;;0.60;;
30149;SDS011;16962;48.646;9.026;2023-12-20T04:16:33;0.70;;;0.70;;
30149;SDS011;16962;48.646;9.026;2023-12-20T04:19:21;0.68;;;0.68;;
30149;SDS011;16962;48.646;9.026;2023-12-20T04:22:10;0.60;;;0.60;;
30149;SDS011;16962;48.646;9.026;2023-12-20T04:24:58;0.68;;;0.68;;
30149;SDS011;16962;48.646;9.026;2023-12-20T04:27:45;0.70;;;0.70;;
30149;SDS011;16962;48.646;9.026;2023-12-20T04:30:33;0.70;;;0.70;;
30149;SDS011;16962;48.646;9.026;2023-12-20T04:33:20;0.80;;;0.80;;
30149;SDS011;16962;48.646;9.026;2023-12-20T04:36:09;0.60;;;0.60;;
30149;SDS011;16962;48.646;9.026;2023-12-20T04:38:57;0.98;;;0.70;;
30149;SDS011;16962;48.646;9.026;2023-12-20T04:41:49;0.70;;;0.70;;
30149;SDS011;16962;48.646;9.026;2023-12-20T04:44:36;0.68;;;0.68;;
30149;SDS011;16962;48.646;9.026;2023-12-20T04:47:24;0.70;;;0.70;;
30149;SDS011;16962;48.646;9.026;2023-12-20T04:50:11;0.70;;;0.70;;
30149;SDS011;16962;48.646;9.026;2023-12-20T04:53:00;1.17;;;1.08;;
30149;SDS011;16962;48.646;9.026;2023-12-20T04:55:47;1.00;;;0.90;;
30149;SDS011;16962;48.646;9.026;2023-12-20T04:58:36;0.82;;;0.82;;
30149;SDS011;16962;48.646;9.026;2023-12-20T05:01:24;0.80;;;0.80;;
30149;SDS011;16962;48.646;9.026;2023-12-20T05:04:11;1.10;;;0.80;;
30149;SDS011;16962;48.646;9.026;2023-12-20T05:07:01;1.13;;;0.70;;
30149;SDS011;16962;48.646;9.026;2023-12-20T05:09:48;2.15;;;0.60;;
30149;SDS011;16962;48.646;9.026;2023-12-20T05:12:35;1.88;;;0.82;;
30149;SDS011;16962;48.646;9.026;2023-12-20T05:15:22;0.80;;;0.80;;
30149;SDS011;16962;48.646;9.026;2023-12-20T05:18:10;1.20;;;0.77;;
30149;SDS011;16962;48.646;9.026;2023-12-20T05:20:59;1.33;;;0.75;;
30149;SDS011;16962;48.646;9.026;2023-12-20T05:23:47;1.17;;;0.80;;
30149;SDS011;16962;48.646;9.026;2023-12-20T05:26:36;1.73;;;1.48;;
30149;SDS011;16962;48.646;9.026;2023-12-20T05:29:25;1.98;;;1.58;;
30149;SDS011;16962;48.646;9.026;2023-12-20T05:32:12;1.25;;;1.10;;
30149;SDS011;16962;48.646;9.026;2023-12-20T05:34:59;0.98;;;0.95;;
30149;SDS011;16962;48.646;9.026;2023-12-20T05:37:47;0.77;;;0.73;;
30149;SDS011;16962;48.646;9.026;2023-12-20T05:40:34;1.30;;;0.80;;
30149;SDS011;16962;48.646;9.026;2023-12-20T05:43:24;0.88;;;0.88;;
30149;SDS011;16962;48.646;9.026;2023-12-20T05:46:11;1.20;;;1.10;;
30149;SDS011;16962;48.646;9.026;2023-12-20T05:48:59;1.73;;;1.02;;
30149;SDS011;16962;48.646;9.026;2023-12-20T05:51:46;1.08;;;0.80;;
30149;SDS011;16962;48.646;9.026;2023-12-20T05:54:36;0.93;;;0.93;;
30149;SDS011;16962;48.646;9.026;2023-12-20T05:57:23;6.30;;;1.67;;
30149;SDS011;16962;48.646;9.026;2023-12-20T06:00:14;2.67;;;1.48;;
30149;SDS011;16962;48.646;9.026;2023-12-20T06:05:47;1.73;;;1.10;;
30149;SDS011;16962;48.646;9.026;2023-12-20T06:08:37;0.90;;;0.90;;
30149;SDS011;16962;48.646;9.026;2023-12-20T06:11:26;1.70;;;1.33;;
30149;SDS011;16962;48.646;9.026;2023-12-20T06:14:16;1.45;;;1.27;;
30149;SDS011;16962;48.646;9.026;2023-12-20T06:17:04;2.80;;;1.20;;
30149;SDS011;16962;48.646;9.026;2023-12-20T06:19:51;1.95;;;1.25;;
30149;SDS011;16962;48.646;9.026;2023-12-20T06:22:38;1.67;;;1.10;;
30149;SDS011;16962;48.646;9.026;2023-12-20T06:25:26;4.05;;;1.75;;
30149;SDS011;16962;48.646;9.026;2023-12-20T06:28:13;2.58;;;1.73;;
30149;SDS011;16962;48.646;9.026;2023-12-20T06:31:01;3.35;;;1.80;;
30149;SDS011;16962;48.646;9.026;2023-12-20T06:33:49;2.53;;;1.70;;
30149;SDS011;16962;48.646;9.026;2023-12-20T06:36:44;1.35;;;1.25;;
30149;SDS011;16962;48.646;9.026;2023-12-20T06:39:32;1.77;;;1.30;;
30149;SDS011;16962;48.646;9.026;2023-12-20T06:42:20;1.55;;;1.45;;
30149;SDS011;16962;48.646;9.026;2023-12-20T06:45:09;3.78;;;2.00;;
30149;SDS011;16962;48.646;9.026;2023-12-20T06:47:57;4.28;;;3.20;;
30149;SDS011;16962;48.646;9.026;2023-12-20T06:50:47;4.78;;;3.05;;
30149;SDS011;16962;48.646;9.026;2023-12-20T06:53:39;3.42;;;1.88;;
30149;SDS011;16962;48.646;9.026;2023-12-20T06:56:27;4.50;;;2.70;;
30149;SDS011;16962;48.646;9.026;2023-12-20T06:59:14;3.35;;;2.70;;
30149;SDS011;16962;48.646;9.026;2023-12-20T07:02:02;3.42;;;2.75;;
30149;SDS011;16962;48.646;9.026;2023-12-20T07:04:49;6.30;;;3.75;;
30149;SDS011;16962;48.646;9.026;2023-12-20T07:07:37;2.75;;;2.20;;
30149;SDS011;16962;48.646;9.026;2023-12-20T07:10:24;3.67;;;2.28;;
30149;SDS011;16962;48.646;9.026;2023-12-20T07:13:11;21.85;;;9.75;;
30149;SDS011;16962;48.646;9.026;2023-12-20T07:16:00;10.48;;;5.57;;
30149;SDS011;16962;48.646;9.026;2023-12-20T07:18:47;7.85;;;4.68;;
30149;SDS011;16962;48.646;9.026;2023-12-20T07:21:34;3.35;;;2.53;;
30149;SDS011;16962;48.646;9.026;2023-12-20T07:24:22;5.28;;;3.17;;
30149;SDS011;16962;48.646;9.026;2023-12-20T07:27:09;6.05;;;3.95;;
30149;SDS011;16962;48.646;9.026;2023-12-20T07:29:58;12.52;;;4.75;;
30149;SDS011;16962;48.646;9.026;2023-12-20T07:32:45;4.90;;;3.00;;
30149;SDS011;16962;48.646;9.026;2023-12-20T07:35:34;1.88;;;1.77;;
30149;SDS011;16962;48.646;9.026;2023-12-20T07:38:23;2.28;;;1.92;;
30149;SDS011;16962;48.646;9.026;2023-12-20T07:41:11;3.28;;;2.13;;
30149;SDS011;16962;48.646;9.026;2023-12-20T07:43:58;1.88;;;1.70;;
30149;SDS011;16962;48.646;9.026;2023-12-20T07:46:46;2.17;;;2.05;;
30149;SDS011;16962;48.646;9.026;2023-12-20T07:49:49;2.58;;;1.80;;
30149;SDS011;16962;48.646;9.026;2023-12-20T07:52:38;1.92;;;1.80;;
30149;SDS011;16962;48.646;9.026;2023-12-20T07:55:26;7.03;;;3.05;;
30149;SDS011;16962;48.646;9.026;2023-12-20T07:58:20;8.88;;;3.53;;
30149;SDS011;16962;48.646;9.026;2023-12-20T08:01:10;7.72;;;5.20;;
30149;SDS011;16962;48.646;9.026;2023-12-20T08:03:58;6.40;;;4.57;;
30149;SDS011;16962;48.646;9.026;2023-12-20T08:06:46;8.43;;;4.53;;
30149;SDS011;16962;48.646;9.026;2023-12-20T08:09:33;6.50;;;3.90;;
30149;SDS011;16962;48.646;9.026;2023-12-20T08:12:23;5.25;;;4.63;;
30149;SDS011;16962;48.646;9.026;2023-12-20T08:15:12;5.93;;;4.10;;
30149;SDS011;16962;48.646;9.026;2023-12-20T08:18:01;5.72;;;4.15;;
30149;SDS011;16962;48.646;9.026;2023-12-20T08:20:53;7.18;;;3.92;;
30149;SDS011;16962;48.646;9.026;2023-12-20T08:23:40;5.88;;;4.53;;
30149;SDS011;16962;48.646;9.026;2023-12-20T08:26:31;9.35;;;5.30;;
30149;SDS011;16962;48.646;9.026;2023-12-20T08:29:21;7.43;;;4.38;;
30149;SDS011;16962;48.646;9.026;2023-12-20T08:32:08;6.75;;;4.90;;
30149;SDS011;16962;48.646;9.026;2023-12-20T08:34:56;8.48;;;5.70;;
30149;SDS011;16962;48.646;9.026;2023-12-20T08:37:43;5.15;;;4.47;;
30149;SDS011;16962;48.646;9.026;2023-12-20T08:40:31;5.53;;;4.72;;
30149;SDS011;16962;48.646;9.026;2023-12-20T08:43:21;6.82;;;5.25;;
30149;SDS011;16962;48.646;9.026;2023-12-20T08:46:11;6.80;;;3.90;;
30149;SDS011;16962;48.646;9.026;2023-12-20T08:48:59;8.65;;;5.07;;
30149;SDS011;16962;48.646;9.026;2023-12-20T08:51:47;10.00;;;5.18;;
30149;SDS011;16962;48.646;9.026;2023-12-20T08:54:34;7.95;;;4.85;;
30149;SDS011;16962;48.646;9.026;2023-12-20T08:57:22;8.27;;;4.80;;
30149;SDS011;16962;48.646;9.026;2023-12-20T09:00:15;10.75;;;5.28;;
30149;SDS011;16962;48.646;9.026;2023-12-20T09:03:06;11.88;;;5.85;;
30149;SDS011;16962;48.646;9.026;2023-12-20T09:05:55;8.93;;;4.47;;
30149;SDS011;16962;48.646;9.026;2023-12-20T09:08:45;7.20;;;3.92;;
30149;SDS011;16962;48.646;9.026;2023-12-20T09:11:32;10.50;;;3.95;;
30149;SDS011;16962;48.646;9.026;2023-12-20T09:14:19;15.30;;;7.93;;
30149;SDS011;16962;48.646;9.026;2023-12-20T09:17:07;8.55;;;4.80;;
30149;SDS011;16962;48.646;9.026;2023-12-20T09:19:55;7.35;;;3.65;;
30149;SDS011;16962;48.646;9.026;2023-12-20T09:22:43;6.40;;;3.55;;
30149;SDS011;16962;48.646;9.026;2023-12-20T09:25:30;6.22;;;2.83;;
30149;SDS011;16962;48.646;9.026;2023-12-20T09:28:18;8.65;;;2.92;;
30149;SDS011;16962;48.646;9.026;2023-12-20T09:31:05;12.27;;;3.28;;
30149;SDS011;16962;48.646;9.026;2023-12-20T09:33:53;3.33;;;2.30;;
30149;SDS011;16962;48.646;9.026;2023-12-20T09:36:41;7.95;;;3.50;;
30149;SDS011;16962;48.646;9.026;2023-12-20T09:39:33;6.47;;;3.47;;
30149;SDS011;16962;48.646;9.026;2023-12-20T09:42:34;9.25;;;2.67;;
30149;SDS011;16962;48.646;9.026;2023-12-20T09:45:31;6.47;;;2.30;;
30149;SDS011;16962;48.646;9.026;2023-12-20T09:48:19;8.18;;;2.08;;
30149;SDS011;16962;48.646;9.026;2023-12-20T09:51:07;9.95;;;1.85;;
30149;SDS011;16962;48.646;9.026;2023-12-20T09:54:00;3.90;;;1.80;;
30149;SDS011;16962;48.646;9.026;2023-12-20T09:56:50;12.05;;;2.20;;
30149;SDS011;16962;48.646;9.026;2023-12-20T09:59:38;8.20;;;1.77;;
30149;SDS011;16962;48.646;9.026;2023-12-20T10:02:27;9.27;;;2.80;;
30149;SDS011;16962;48.646;9.026;2023-12-20T10:05:19;5.18;;;2.10;;
30149;SDS011;16962;48.646;9.026;2023-12-20T10:08:13;4.32;;;2.10;;
30149;SDS011;16962;48.646;9.026;2023-12-20T10:11:01;9.63;;;2.05;;
30149;SDS011;16962;48.646;9.026;2023-12-20T10:13:49;9.82;;;2.63;;
30149;SDS011;16962;48.646;9.026;2023-12-20T10:16:38;6.97;;;2.00;;
30149;SDS011;16962;48.646;9.026;2023-12-20T10:19:30;7.70;;;2.20;;
30149;SDS011;16962;48.646;9.026;2023-12-20T10:22:21;8.43;;;2.55;;
30149;SDS011;16962;48.646;9.026;2023-12-20T10:25:14;7.05;;;2.38;;
30149;SDS011;16962;48.646;9.026;2023-12-20T10:28:35;7.80;;;3.08;;
30149;SDS011;16962;48.646;9.026;2023-12-20T10:31:32;8.40;;;3.30;;
30149;SDS011;16962;48.646;9.026;2023-12-20T10:34:21;10.10;;;3.13;;
30149;SDS011;16962;48.646;9.026;2023-12-20T10:37:08;10.32;;;2.60;;
30149;SDS011;16962;48.646;9.026;2023-12-20T10:39:55;8.82;;;3.15;;
30149;SDS011;16962;48.646;9.026;2023-12-20T10:42:49;8.63;;;3.28;;
30149;SDS011;16962;48.646;9.026;2023-12-20T10:45:41;4.50;;;2.40;;
30149;SDS011;16962;48.646;9.026;2023-12-20T10:48:32;13.43;;;5.25;;
30149;SDS011;16962;48.646;9.026;2023-12-20T10:51:19;8.70;;;3.95;;
30149;SDS011;16962;48.646;9.026;2023-12-20T10:54:07;7.18;;;3.05;;
30149;SDS011;16962;48.646;9.026;2023-12-20T10:56:55;9.05;;;2.47;;
30149;SDS011;16962;48.646;9.026;2023-12-20T10:59:49;11.88;;;5.13;;
30149;SDS011;16962;48.646;9.026;2023-12-20T11:02:41;7.55;;;3.40;;
30149;SDS011;16962;48.646;9.026;2023-12-20T11:08:45;7.20;;;3.28;;
30149;SDS011;16962;48.646;9.026;2023-12-20T11:17:39;7.03;;;2.40;;
30149;SDS011;16962;48.646;9.026;2023-12-20T11:20:37;8.50;;;2.47;;
30149;SDS011;16962;48.646;9.026;2023-12-20T11:23:29;10.38;;;2.10;;
30149;SDS011;16962;48.646;9.026;2023-12-20T11:26:17;10.38;;;2.60;;
30149;SDS011;16962;48.646;9.026;2023-12-20T11:29:30;7.38;;;2.42;;
30149;SDS011;16962;48.646;9.026;2023-12-20T11:38:03;5.30;;;2.05;;
30149;SDS011;16962;48.646;9.026;2023-12-20T11:40:56;3.72;;;2.00;;
30149;SDS011;16962;48.646;9.026;2023-12-20T11:43:52;6.70;;;2.20;;
30149;SDS011;16962;48.646;9.026;2023-12-20T11:46:40;7.22;;;2.30;;
30149;SDS011;16962;48.646;9.026;2023-12-20T11:49:30;8.85;;;1.85;;
30149;SDS011;16962;48.646;9.026;2023-12-20T11:52:19;4.78;;;1.50;;
30149;SDS011;16962;48.646;9.026;2023-12-20T11:55:06;4.72;;;2.00;;
30149;SDS011;16962;48.646;9.026;2023-12-20T11:57:56;13.57;;;2.33;;
30149;SDS011;16962;48.646;9.026;2023-12-20T12:00:43;15.75;;;2.72;;
30149;SDS011;16962;48.646;9.026;2023-12-20T12:03:31;11.48;;;3.70;;
30149;SDS011;16962;48.646;9.026;2023-12-20T12:06:19;10.57;;;4.22;;
30149;SDS011;16962;48.646;9.026;2023-12-20T12:09:08;8.45;;;3.70;;
30149;SDS011;16962;48.646;9.026;2023-12-20T12:11:55;8.38;;;3.30;;
30149;SDS011;16962;48.646;9.026;2023-12-20T12:14:42;14.88;;;3.47;;
30149;SDS011;16962;48.646;9.026;2023-12-20T12:17:31;8.18;;;3.08;;
30149;SDS011;16962;48.646;9.026;2023-12-20T12:20:23;6.30;;;2.03;;
30149;SDS011;16962;48.646;9.026;2023-12-20T12:23:13;6.75;;;2.35;;
30149;SDS011;16962;48.646;9.026;2023-12-20T12:26:03;7.03;;;2.33;;
30149;SDS011;16962;48.646;9.026;2023-12-20T12:28:51;9.40;;;2.15;;
30149;SDS011;16962;48.646;9.026;2023-12-20T12:31:40;16.42;;;5.15;;
30149;SDS011;16962;48.646;9.026;2023-12-20T12:34:28;8.77;;;2.13;;
30149;SDS011;16962;48.646;9.026;2023-12-20T12:37:18;7.85;;;2.58;;
30149;SDS011;16962;48.646;9.026;2023-12-20T12:40:11;9.63;;;2.42;;
30149;SDS011;16962;48.646;9.026;2023-12-20T12:43:00;9.68;;;2.67;;
30149;SDS011;16962;48.646;9.026;2023-12-20T12:45:49;7.22;;;2.40;;
30149;SDS011;16962;48.646;9.026;2023-12-20T12:48:37;7.57;;;2.20;;
30149;SDS011;16962;48.646;9.026;2023-12-20T12:51:25;8.52;;;3.25;;
30149;SDS011;16962;48.646;9.026;2023-12-20T12:54:15;9.38;;;2.35;;
30149;SDS011;16962;48.646;9.026;2023-12-20T12:57:04;9.18;;;2.40;;
30149;SDS011;16962;48.646;9.026;2023-12-20T12:59:52;6.50;;;1.98;;
30149;SDS011;16962;48.646;9.026;2023-12-20T13:02:39;8.75;;;2.30;;
30149;SDS011;16962;48.646;9.026;2023-12-20T13:05:29;5.60;;;1.98;;
30149;SDS011;16962;48.646;9.026;2023-12-20T13:08:25;10.43;;;2.50;;
30149;SDS011;16962;48.646;9.026;2023-12-20T13:11:16;9.98;;;2.33;;
30149;SDS011;16962;48.646;9.026;2023-12-20T13:14:11;6.90;;;2.00;;
30149;SDS011;16962;48.646;9.026;2023-12-20T13:17:02;8.02;;;2.10;;
30149;SDS011;16962;48.646;9.026;2023-12-20T13:19:50;9.55;;;2.22;;
30149;SDS011;16962;48.646;9.026;2023-12-20T13:22:37;6.78;;;2.35;;
30149;SDS011;16962;48.646;9.026;2023-12-20T13:25:25;10.43;;;2.40;;
30149;SDS011;16962;48.646;9.026;2023-12-20T13:28:15;8.80;;;2.28;;
30149;SDS011;16962;48.646;9.026;2023-12-20T13:31:03;5.82;;;3.70;;
30149;SDS011;16962;48.646;9.026;2023-12-20T13:33:50;6.32;;;2.13;;
30149;SDS011;16962;48.646;9.026;2023-12-20T13:36:39;5.97;;;2.20;;
30149;SDS011;16962;48.646;9.026;2023-12-20T13:39:26;7.38;;;2.50;;
30149;SDS011;16962;48.646;9.026;2023-12-20T13:42:14;7.85;;;2.63;;
30149;SDS011;16962;48.646;9.026;2023-12-20T13:45:01;10.55;;;2.90;;
30149;SDS011;16962;48.646;9.026;2023-12-20T13:47:51;6.03;;;2.30;;
30149;SDS011;16962;48.646;9.026;2023-12-20T13:50:41;11.57;;;2.40;;
30149;SDS011;16962;48.646;9.026;2023-12-20T13:53:28;8.93;;;2.55;;
30149;SDS011;16962;48.646;9.026;2023-12-20T13:56:16;6.30;;;2.15;;
30149;SDS011;16962;48.646;9.026;2023-12-20T13:59:03;7.95;;;2.30;;
30149;SDS011;16962;48.646;9.026;2023-12-20T14:01:50;8.27;;;2.58;;
30149;SDS011;16962;48.646;9.026;2023-12-20T14:04:38;6.60;;;2.33;;
30149;SDS011;16962;48.646;9.026;2023-12-20T14:07:29;7.82;;;2.40;;
30149;SDS011;16962;48.646;9.026;2023-12-20T14:10:17;6.18;;;2.42;;
30149;SDS011;16962;48.646;9.026;2023-12-20T14:13:07;6.97;;;2.72;;
30149;SDS011;16962;48.646;9.026;2023-12-20T14:19:31;11.45;;;2.60;;
30149;SDS011;16962;48.646;9.026;2023-12-20T14:22:20;9.68;;;2.97;;
30149;SDS011;16962;48.646;9.026;2023-12-20T14:25:08;8.95;;;2.42;;
30149;SDS011;16962;48.646;9.026;2023-12-20T14:27:56;5.32;;;2.75;;
30149;SDS011;16962;48.646;9.026;2023-12-20T14:30:44;10.90;;;3.28;;
30149;SDS011;16962;48.646;9.026;2023-12-20T14:33:31;10.18;;;2.28;;
30149;SDS011;16962;48.646;9.026;2023-12-20T14:36:21;12.32;;;3.00;;
30149;SDS011;16962;48.646;9.026;2023-12-20T14:39:08;9.18;;;2.95;;
30149;SDS011;16962;48.646;9.026;2023-12-20T14:41:59;12.10;;;2.53;;
30149;SDS011;16962;48.646;9.026;2023-12-20T14:44:49;8.15;;;2.75;;
30149;SDS011;16962;48.646;9.026;2023-12-20T14:47:38;7.10;;;2.80;;
30149;SDS011;16962;48.646;9.026;2023-12-20T14:50:28;8.43;;;2.47;;
30149;SDS011;16962;48.646;9.026;2023-12-20T14:53:20;9.35;;;2.90;;
30149;SDS011;16962;48.646;9.026;2023-12-20T14:56:09;11.48;;;2.25;;
30149;SDS011;16962;48.646;9.026;2023-12-20T14:58:56;11.23;;;2.88;;
30149;SDS011;16962;48.646;9.026;2023-12-20T15:01:48;7.63;;;2.70;;
30149;SDS011;16962;48.646;9.026;2023-12-20T15:04:36;10.43;;;2.95;;
30149;SDS011;16962;48.646;9.026;2023-12-20T15:07:23;9.52;;;3.10;;
30149;SDS011;16962;48.646;9.026;2023-12-20T15:10:13;8.88;;;2.75;;
30149;SDS011;16962;48.646;9.026;2023-12-20T15:13:01;7.07;;;2.80;;
30149;SDS011;16962;48.646;9.026;2023-12-20T15:15:49;6.80;;;2.83;;
30149;SDS011;16962;48.646;9.026;2023-12-20T15:18:37;7.72;;;2.70;;
30149;SDS011;16962;48.646;9.026;2023-12-20T15:21:28;7.03;;;2.60;;
30149;SDS011;16962;48.646;9.026;2023-12-20T15:24:20;9.85;;;2.70;;
30149;SDS011;16962;48.646;9.026;2023-12-20T15:27:17;4.22;;;2.60;;
30149;SDS011;16962;48.646;9.026;2023-12-20T15:30:05;6.40;;;2.72;;
30149;SDS011;16962;48.646;9.026;2023-12-20T15:32:56;8.65;;;3.78;;
30149;SDS011;16962;48.646;9.026;2023-12-20T15:35:44;11.45;;;2.90;;
30149;SDS011;16962;48.646;9.026;2023-12-20T15:38:32;10.93;;;3.88;;
30149;SDS011;16962;48.646;9.026;2023-12-20T15:41:22;10.63;;;3.35;;
30149;SDS011;16962;48.646;9.026;2023-12-20T15:44:10;7.85;;;3.92;;
30149;SDS011;16962;48.646;9.026;2023-12-20T15:46:57;14.82;;;3.97;;
30149;SDS011;16962;48.646;9.026;2023-12-20T15:49:45;13.68;;;3.20;;
30149;SDS011;16962;48.646;9.026;2023-12-20T15:52:38;9.07;;;3.30;;
30149;SDS011;16962;48.646;9.026;2023-12-20T15:55:26;12.27;;;3.17;;
30149;SDS011;16962;48.646;9.026;2023-12-20T15:58:15;11.50;;;3.00;;
30149;SDS011;16962;48.646;9.026;2023-12-20T16:01:05;8.55;;;2.97;;
30149;SDS011;16962;48.646;9.026;2023-12-20T16:03:54;7.60;;;4.05;;
30149;SDS011;16962;48.646;9.026;2023-12-20T16:06:45;13.50;;;4.05;;
30149;SDS011;16962;48.646;9.026;2023-12-20T16:09:32;12.10;;;4.30;;
30149;SDS011;16962;48.646;9.026;2023-12-20T16:12:20;10.50;;;3.30;;
30149;SDS011;16962;48.646;9.026;2023-12-20T16:15:09;7.45;;;3.67;;
30149;SDS011;16962;48.646;9.026;2023-12-20T16:17:57;8.95;;;3.50;;
30149;SDS011;16962;48.646;9.026;2023-12-20T16:20:46;9.63;;;3.40;;
30149;SDS011;16962;48.646;9.026;2023-12-20T16:23:34;5.93;;;2.85;;
30149;SDS011;16962;48.646;9.026;2023-12-20T16:26:21;10.18;;;3.10;;
30149;SDS011;16962;48.646;9.026;2023-12-20T16:29:08;9.93;;;3.28;;
30149;SDS011;16962;48.646;9.026;2023-12-20T16:31:56;10.57;;;3.88;;
30149;SDS011;16962;48.646;9.026;2023-12-20T16:34:43;6.20;;;3.30;;
30149;SDS011;16962;48.646;9.026;2023-12-20T16:37:31;13.30;;;3.97;;
30149;SDS011;16962;48.646;9.026;2023-12-20T16:40:18;12.90;;;3.13;;
30149;SDS011;16962;48.646;9.026;2023-12-20T16:43:11;11.43;;;4.18;;
30149;SDS011;16962;48.646;9.026;2023-12-20T16:45:58;8.90;;;3.55;;
30149;SDS011;16962;48.646;9.026;2023-12-20T16:48:47;8.32;;;4.10;;
30149;SDS011;16962;48.646;9.026;2023-12-20T16:51:34;9.55;;;3.45;;
30149;SDS011;16962;48.646;9.026;2023-12-20T16:54:24;10.27;;;3.88;;
30149;SDS011;16962;48.646;9.026;2023-12-20T16:57:11;9.43;;;4.45;;
30149;SDS011;16962;48.646;9.026;2023-12-20T16:59:58;10.77;;;4.40;;
30149;SDS011;16962;48.646;9.026;2023-12-20T17:02:46;20.42;;;5.82;;
30149;SDS011;16962;48.646;9.026;2023-12-20T17:05:33;12.32;;;4.90;;
30149;SDS011;16962;48.646;9.026;2023-12-20T17:08:21;10.35;;;3.47;;
30149;SDS011;16962;48.646;9.026;2023-12-20T17:11:08;8.57;;;3.70;;
30149;SDS011;16962;48.646;9.026;2023-12-20T17:13:59;6.78;;;3.15;;
30149;SDS011;16962;48.646;9.026;2023-12-20T17:16:46;5.03;;;2.97;;